createdAt,value
2018-08-20T00:01:39.474Z,13.90
2018-08-20T00:04:15.129Z,13.70
2018-08-20T00:07:00.585Z,17.80
2018-08-20T00:09:49.665Z,16.73
2018-08-20T00:12:21.449Z,13.55
2018-08-20T00:14:57.472Z,17.62
2018-08-20T00:17:28.944Z,16.33
2018-08-20T00:20:03.341Z,14.48
2018-08-20T00:22:37.959Z,18.85
2018-08-20T00:25:21.608Z,15.70
2018-08-20T00:27:52.515Z,16.30
2018-08-20T00:30:23.855Z,16.37
2018-08-20T00:32:57.251Z,18.48
2018-08-20T00:35:30.235Z,15.43
2018-08-20T00:38:04.586Z,17.67
2018-08-20T00:40:36.024Z,18.92
2018-08-20T00:43:08.942Z,16.90
2018-08-20T00:45:42.141Z,18.98
2018-08-20T00:48:16.563Z,16.67
2018-08-20T00:50:46.668Z,16.90
2018-08-20T00:53:19.824Z,16.45
2018-08-20T00:55:50.299Z,20.85
2018-08-20T00:58:24.612Z,20.50
2018-08-20T01:00:57.889Z,16.98
2018-08-20T01:03:29.365Z,16.15
2018-08-20T01:06:00.936Z,15.63
2018-08-20T01:08:31.785Z,15.90
2018-08-20T01:11:04.999Z,16.95
2018-08-20T01:13:36.489Z,15.52
2018-08-20T01:16:08.068Z,15.45
2018-08-20T01:18:41.087Z,18.33
2018-08-20T01:21:11.534Z,22.92
2018-08-20T01:23:46.403Z,24.12
2018-08-20T01:26:17.913Z,20.42
2018-08-20T01:28:50.945Z,16.73
2018-08-20T01:31:23.153Z,18.83
2018-08-20T01:33:53.098Z,18.75
2018-08-20T01:36:26.040Z,17.10
2018-08-20T01:38:59.536Z,24.70
2018-08-20T01:41:31.127Z,22.87
2018-08-20T01:44:00.857Z,20.85
2018-08-20T01:46:32.512Z,18.60
2018-08-20T01:49:05.454Z,17.60
2018-08-20T01:51:36.970Z,21.20
2018-08-20T01:54:08.458Z,18.77
2018-08-20T01:56:42.009Z,25.10
2018-08-20T01:59:13.149Z,24.20
2018-08-20T02:01:43.149Z,19.15
2018-08-20T02:04:13.105Z,21.90
2018-08-20T02:06:45.184Z,25.10
2018-08-20T02:09:16.622Z,24.77
2018-08-20T02:11:49.790Z,26.33
2018-08-20T02:14:21.736Z,28.25
2018-08-20T02:16:54.795Z,31.73
2018-08-20T02:19:27.806Z,27.40
2018-08-20T02:21:59.323Z,29.75
2018-08-20T02:24:33.724Z,31.87
2018-08-20T02:27:03.296Z,27.60
2018-08-20T02:29:33.227Z,33.17
2018-08-20T02:32:06.404Z,33.78
2018-08-20T02:34:38.635Z,34.08
2018-08-20T02:37:13.558Z,32.95
2018-08-20T02:39:45.105Z,35.95
2018-08-20T02:42:19.719Z,38.53
2018-08-20T02:44:52.041Z,39.75
2018-08-20T02:47:25.187Z,35.58
2018-08-20T02:49:58.061Z,32.15
2018-08-20T02:52:28.141Z,30.98
2018-08-20T02:55:01.027Z,32.28
2018-08-20T02:57:33.321Z,35.38
2018-08-20T03:00:06.260Z,33.20
2018-08-20T03:02:37.913Z,34.45
2018-08-20T03:05:11.411Z,37.47
2018-08-20T03:07:43.268Z,37.22
2018-08-20T03:10:16.483Z,37.60
2018-08-20T03:12:49.469Z,36.88
2018-08-20T03:15:21.346Z,41.10
2018-08-20T03:17:54.348Z,40.75
2018-08-20T03:20:25.837Z,36.72
2018-08-20T03:22:58.644Z,47.03
2018-08-20T03:25:32.673Z,41.05
2018-08-20T03:28:03.933Z,52.28
2018-08-20T03:30:36.833Z,42.42
2018-08-20T03:33:08.378Z,47.55
2018-08-20T03:35:42.757Z,50.25
2018-08-20T03:38:14.685Z,41.65
2018-08-20T03:40:46.663Z,47.45
2018-08-20T03:43:19.728Z,53.13
2018-08-20T03:45:52.804Z,46.95
2018-08-20T03:48:26.203Z,51.42
2018-08-20T03:50:58.163Z,50.60
2018-08-20T03:53:28.799Z,36.97
2018-08-20T03:56:03.620Z,31.67
2018-08-20T03:58:36.918Z,27.48
2018-08-20T04:01:08.503Z,29.55
2018-08-20T04:03:40.515Z,25.00
2018-08-20T04:06:11.913Z,26.42
2018-08-20T04:08:43.351Z,30.60
2018-08-20T04:11:17.977Z,26.33
2018-08-20T04:13:50.955Z,28.60
2018-08-20T04:16:20.988Z,23.58
2018-08-20T04:18:59.233Z,32.33
2018-08-20T04:21:32.207Z,27.02
2018-08-20T04:24:02.199Z,30.65
2018-08-20T04:26:33.671Z,30.42
2018-08-20T04:29:08.109Z,27.62
2018-08-20T04:31:39.746Z,30.62
2018-08-20T04:34:09.783Z,31.55
2018-08-20T04:36:43.018Z,30.20
2018-08-20T04:39:13.326Z,36.17
2018-08-20T04:41:46.405Z,42.20
2018-08-20T04:44:16.424Z,28.17
2018-08-20T04:46:47.901Z,28.95
2018-08-20T04:49:21.005Z,37.88
2018-08-20T04:51:53.921Z,30.67
2018-08-20T04:54:28.222Z,27.77
2018-08-20T04:57:02.150Z,32.30
2018-08-20T04:59:34.982Z,40.03
2018-08-20T05:02:06.585Z,34.88
2018-08-20T05:04:39.545Z,36.20
2018-08-20T05:07:13.020Z,32.65
2018-08-20T05:09:44.754Z,46.55
2018-08-20T05:12:18.626Z,35.10
2018-08-20T05:14:50.242Z,35.22
2018-08-20T05:17:23.125Z,40.80
2018-08-20T05:19:56.119Z,43.47
2018-08-20T05:22:29.592Z,37.20
2018-08-20T05:25:01.055Z,51.17
2018-08-20T05:27:31.627Z,41.88
2018-08-20T05:30:05.284Z,42.97
2018-08-20T05:32:36.758Z,43.38
2018-08-20T05:35:08.896Z,44.75
2018-08-20T05:37:40.349Z,44.90
2018-08-20T05:40:11.866Z,49.20
2018-08-20T05:42:43.306Z,47.33
2018-08-20T05:45:15.531Z,42.95
2018-08-20T05:47:46.978Z,46.25
2018-08-20T05:50:21.378Z,41.78
2018-08-20T05:52:54.209Z,41.30
2018-08-20T05:55:26.179Z,45.17
2018-08-20T05:57:59.719Z,40.95
2018-08-20T06:00:32.739Z,40.53
2018-08-20T06:03:05.680Z,40.15
2018-08-20T06:05:37.098Z,46.55
2018-08-20T06:08:11.736Z,42.72
2018-08-20T06:10:43.108Z,41.35
2018-08-20T06:13:13.625Z,44.78
2018-08-20T06:15:46.557Z,48.00
2018-08-20T06:18:18.072Z,45.25
2018-08-20T06:20:49.479Z,43.20
2018-08-20T06:23:23.151Z,44.17
2018-08-20T06:25:54.561Z,46.75
2018-08-20T06:28:25.997Z,50.13
2018-08-20T06:30:58.187Z,52.28
2018-08-20T06:33:32.517Z,46.47
2018-08-20T06:36:03.921Z,41.78
2018-08-20T06:38:34.490Z,46.58
2018-08-20T06:41:06.512Z,43.72
2018-08-20T06:43:38.112Z,46.75
2018-08-20T06:46:11.206Z,46.55
2018-08-20T06:48:41.614Z,43.03
2018-08-20T06:51:13.061Z,42.97
2018-08-20T06:53:44.567Z,47.30
2018-08-20T06:56:17.517Z,46.58
2018-08-20T06:58:50.428Z,43.00
2018-08-20T07:01:20.645Z,40.03
2018-08-20T07:03:50.842Z,34.80
2018-08-20T07:06:22.437Z,35.25
2018-08-20T07:08:52.853Z,36.95
2018-08-20T07:11:24.282Z,29.25
2018-08-20T07:13:55.869Z,27.45
2018-08-20T07:16:30.341Z,31.67
2018-08-20T07:19:03.206Z,25.67
2018-08-20T07:21:36.519Z,27.58
2018-08-20T07:24:09.788Z,26.62
2018-08-20T07:26:41.218Z,28.60
2018-08-20T07:29:14.616Z,25.77
2018-08-20T07:31:46.128Z,18.83
2018-08-20T07:34:19.105Z,13.85
2018-08-20T07:36:50.584Z,14.70
2018-08-20T07:39:23.627Z,14.65
2018-08-20T07:41:55.296Z,16.85
2018-08-20T07:44:29.742Z,16.40
2018-08-20T07:47:02.842Z,13.57
2018-08-20T07:49:35.792Z,15.43
2018-08-20T07:52:10.457Z,9.68
2018-08-20T07:54:43.733Z,11.82
2018-08-20T07:57:15.265Z,10.27
2018-08-20T07:59:48.518Z,9.23
2018-08-20T08:02:19.995Z,10.65
2018-08-20T08:04:54.758Z,14.98
2018-08-20T08:07:27.705Z,10.63
2018-08-20T08:10:00.647Z,6.95
2018-08-20T08:12:34.992Z,6.20
2018-08-20T08:15:09.892Z,7.03
2018-08-20T08:17:43.293Z,8.10
2018-08-20T08:20:18.185Z,7.65
2018-08-20T08:22:51.111Z,8.00
2018-08-20T08:25:24.168Z,9.00
2018-08-20T08:27:54.062Z,7.80
2018-08-20T08:30:26.970Z,8.50
2018-08-20T08:33:01.431Z,10.15
2018-08-20T08:35:34.937Z,9.25
2018-08-20T08:38:04.953Z,11.98
2018-08-20T08:40:36.412Z,7.75
2018-08-20T08:43:08.407Z,9.55
2018-08-20T08:45:39.877Z,11.80
2018-08-20T08:48:09.773Z,7.28
2018-08-20T08:50:41.356Z,7.95
2018-08-20T08:53:13.142Z,9.20
2018-08-20T08:55:46.048Z,9.70
2018-08-20T08:58:18.079Z,9.10
2018-08-20T09:00:51.178Z,8.57
2018-08-20T09:03:24.191Z,9.90
2018-08-20T09:05:57.033Z,9.02
2018-08-20T09:08:30.302Z,5.82
2018-08-20T09:11:03.352Z,8.40
2018-08-20T09:13:36.310Z,9.10
2018-08-20T09:16:09.212Z,9.63
2018-08-20T09:18:40.705Z,5.12
2018-08-20T09:21:12.653Z,7.50
2018-08-20T09:23:44.103Z,8.07
2018-08-20T09:26:14.737Z,7.22
2018-08-20T09:28:46.357Z,5.97
2018-08-20T09:31:19.304Z,8.30
2018-08-20T09:33:52.236Z,7.53
2018-08-20T09:36:25.239Z,7.53
2018-08-20T09:38:56.670Z,3.75
2018-08-20T09:41:29.598Z,5.65
2018-08-20T09:44:02.634Z,3.62
2018-08-20T09:46:35.675Z,4.90
2018-08-20T09:49:08.741Z,3.67
2018-08-20T09:51:41.702Z,5.60
2018-08-20T09:54:13.286Z,7.30
2018-08-20T09:56:45.551Z,4.00
2018-08-20T09:59:17.021Z,4.80
2018-08-20T10:01:51.434Z,6.53
2018-08-20T10:04:22.882Z,7.20
2018-08-20T10:06:57.524Z,3.40
2018-08-20T10:09:28.964Z,3.60
2018-08-20T10:11:59.554Z,5.25
2018-08-20T10:14:34.230Z,6.72
2018-08-20T10:17:05.644Z,4.97
2018-08-20T10:19:37.069Z,2.58
2018-08-20T10:22:07.244Z,5.53
2018-08-20T10:24:40.174Z,4.55
2018-08-20T10:27:12.324Z,6.35
2018-08-20T10:29:43.779Z,7.32
2018-08-20T10:32:17.280Z,3.62
2018-08-20T10:34:50.152Z,3.62
2018-08-20T10:37:21.780Z,6.30
2018-08-20T10:39:55.311Z,4.25
2018-08-20T10:42:26.750Z,5.32
2018-08-20T10:45:21.260Z,3.47
2018-08-20T10:47:52.774Z,3.28
2018-08-20T10:50:24.795Z,3.95
2018-08-20T10:52:57.675Z,3.95
2018-08-20T10:55:29.419Z,3.05
2018-08-20T10:58:02.641Z,4.03
2018-08-20T11:00:32.508Z,3.60
2018-08-20T11:03:04.055Z,3.65
2018-08-20T11:05:35.517Z,3.05
2018-08-20T11:08:08.494Z,4.87
2018-08-20T11:10:41.568Z,3.40
2018-08-20T11:13:16.975Z,2.10
2018-08-20T11:15:47.460Z,3.28
2018-08-20T11:18:20.544Z,2.83
2018-08-20T11:20:52.067Z,2.10
2018-08-20T11:23:23.538Z,2.35
2018-08-20T11:25:56.374Z,3.83
2018-08-20T11:28:29.956Z,2.00
2018-08-20T11:31:02.997Z,1.58
2018-08-20T11:33:36.212Z,3.10
2018-08-20T11:36:09.662Z,2.17
2018-08-20T11:38:42.522Z,1.52
2018-08-20T11:41:14.639Z,3.03
2018-08-20T11:43:46.052Z,1.40
2018-08-20T11:46:20.549Z,2.00
2018-08-20T11:48:55.158Z,2.67
2018-08-20T11:51:27.716Z,1.48
2018-08-20T11:54:00.558Z,3.22
2018-08-20T11:56:31.896Z,1.95
2018-08-20T11:59:04.884Z,1.17
2018-08-20T12:01:39.102Z,1.52
2018-08-20T12:04:12.025Z,1.17
2018-08-20T12:06:43.561Z,2.78
2018-08-20T12:09:16.414Z,4.87
2018-08-20T12:11:47.014Z,4.32
2018-08-20T12:14:18.444Z,1.35
2018-08-20T12:16:51.364Z,0.90
2018-08-20T12:19:22.711Z,1.37
2018-08-20T12:21:55.770Z,1.77
2018-08-20T12:24:28.562Z,1.60
2018-08-20T12:27:00.026Z,1.92
2018-08-20T12:29:30.051Z,2.53
2018-08-20T12:32:02.899Z,2.00
2018-08-20T12:34:34.271Z,1.98
2018-08-20T12:37:07.210Z,1.60
2018-08-20T12:39:40.232Z,3.12
2018-08-20T12:42:13.013Z,2.45
2018-08-20T12:44:44.821Z,1.62
2018-08-20T12:47:16.290Z,1.70
2018-08-20T12:49:46.228Z,3.72
2018-08-20T12:52:17.938Z,2.08
2018-08-20T12:54:49.551Z,1.65
2018-08-20T12:57:23.489Z,1.40
2018-08-20T12:59:59.222Z,1.85
2018-08-20T13:02:30.626Z,1.33
2018-08-20T13:05:05.023Z,1.67
2018-08-20T13:07:36.518Z,2.42
2018-08-20T13:10:11.663Z,2.95
2018-08-20T13:12:44.554Z,1.52
2018-08-20T13:15:16.184Z,1.50
2018-08-20T13:17:49.227Z,3.22
2018-08-20T13:20:23.544Z,2.25
2018-08-20T13:22:56.568Z,2.87
2018-08-20T13:25:29.502Z,1.92
2018-08-20T13:28:01.587Z,11.12
2018-08-20T13:30:33.430Z,4.30
2018-08-20T13:33:05.666Z,2.15
2018-08-20T13:35:40.026Z,2.30
2018-08-20T13:38:11.558Z,2.75
2018-08-20T13:40:44.510Z,1.73
2018-08-20T13:43:16.533Z,4.07
2018-08-20T13:45:49.424Z,2.10
2018-08-20T13:48:20.896Z,3.37
2018-08-20T13:50:53.839Z,2.20
2018-08-20T13:53:26.807Z,2.58
2018-08-20T13:55:59.651Z,2.95
2018-08-20T13:58:34.007Z,2.42
2018-08-20T14:01:07.463Z,2.55
2018-08-20T14:03:38.933Z,1.83
2018-08-20T14:06:12.095Z,2.58
2018-08-20T14:08:45.128Z,2.28
2018-08-20T14:11:19.583Z,2.33
2018-08-20T14:13:51.112Z,5.95
2018-08-20T14:16:22.523Z,4.60
2018-08-20T14:18:55.570Z,3.03
2018-08-20T14:21:28.719Z,2.12
2018-08-20T14:24:00.048Z,2.95
2018-08-20T14:26:31.961Z,5.47
2018-08-20T14:29:02.347Z,2.75
2018-08-20T14:31:32.261Z,2.17
2018-08-20T14:34:05.193Z,1.67
2018-08-20T14:36:36.667Z,3.97
2018-08-20T14:39:10.719Z,4.90
2018-08-20T14:41:45.146Z,3.47
2018-08-20T14:44:19.677Z,2.22
2018-08-20T14:46:54.253Z,1.73
2018-08-20T14:49:25.748Z,3.85
2018-08-20T14:51:57.180Z,3.17
2018-08-20T14:54:29.961Z,2.85
2018-08-20T14:57:02.844Z,3.92
2018-08-20T14:59:35.665Z,2.62
2018-08-20T15:02:07.195Z,4.30
2018-08-20T15:04:41.578Z,5.20
2018-08-20T15:07:15.064Z,2.28
2018-08-20T15:09:48.490Z,4.18
2018-08-20T15:12:18.453Z,3.42
2018-08-20T15:14:51.891Z,3.65
2018-08-20T15:17:23.281Z,1.60
2018-08-20T15:19:57.652Z,2.28
2018-08-20T15:22:30.524Z,3.25
2018-08-20T15:25:03.392Z,1.70
2018-08-20T15:27:36.372Z,3.30
2018-08-20T15:30:09.331Z,5.57
2018-08-20T15:32:40.852Z,2.45
2018-08-20T15:35:13.938Z,3.33
2018-08-20T15:37:46.956Z,1.70
2018-08-20T15:40:16.969Z,2.47
2018-08-20T15:42:50.307Z,2.87
2018-08-20T15:45:24.825Z,2.25
2018-08-20T15:47:59.184Z,5.15
2018-08-20T15:50:31.150Z,3.87
2018-08-20T15:53:02.670Z,2.50
2018-08-20T15:55:35.360Z,4.22
2018-08-20T15:58:08.424Z,2.55
2018-08-20T16:00:41.294Z,5.10
2018-08-20T16:03:15.547Z,2.08
2018-08-20T16:05:46.906Z,3.40
2018-08-20T16:08:16.473Z,2.65
2018-08-20T16:10:48.315Z,4.10
2018-08-20T16:13:19.623Z,2.97
2018-08-20T16:15:50.962Z,3.62
2018-08-20T16:18:22.475Z,4.22
2018-08-20T16:20:53.830Z,2.00
2018-08-20T16:23:27.317Z,1.85
2018-08-20T16:26:00.195Z,2.53
2018-08-20T16:28:33.259Z,5.53
2018-08-20T16:31:04.720Z,3.35
2018-08-20T16:33:37.770Z,2.03
2018-08-20T16:36:09.179Z,2.05
2018-08-20T16:38:39.565Z,2.65
2018-08-20T16:41:11.038Z,1.73
2018-08-20T16:43:42.609Z,2.00
2018-08-20T16:46:16.903Z,3.12
2018-08-20T16:48:46.804Z,2.55
2018-08-20T16:51:18.312Z,2.03
2018-08-20T16:53:49.788Z,2.92
2018-08-20T16:56:22.709Z,3.55
2018-08-20T16:58:56.135Z,3.55
2018-08-20T17:01:30.698Z,1.77
2018-08-20T17:04:02.623Z,2.33
2018-08-20T17:06:55.483Z,2.85
2018-08-20T17:09:26.918Z,2.53
2018-08-20T17:11:58.223Z,3.92
2018-08-20T17:14:29.831Z,2.92
2018-08-20T17:17:02.968Z,2.33
2018-08-20T17:19:36.524Z,3.10
2018-08-20T17:22:11.057Z,3.28
2018-08-20T17:24:44.212Z,3.42
2018-08-20T17:27:18.541Z,3.80
2018-08-20T17:29:51.410Z,3.80
2018-08-20T17:32:22.725Z,2.10
2018-08-20T17:34:54.126Z,1.90
2018-08-20T17:37:25.809Z,1.42
2018-08-20T17:40:09.317Z,3.20
2018-08-20T17:42:40.694Z,1.40
2018-08-20T17:45:12.365Z,1.33
2018-08-20T17:47:45.383Z,2.22
2018-08-20T17:50:45.057Z,1.62
2018-08-20T17:53:15.981Z,3.15
2018-08-20T17:55:48.985Z,1.50
2018-08-20T17:58:19.147Z,3.17
2018-08-20T18:00:57.852Z,3.17
2018-08-20T18:03:33.945Z,4.55
2018-08-20T18:06:12.257Z,3.67
2018-08-20T18:08:44.008Z,2.92
2018-08-20T18:11:14.627Z,2.25
2018-08-20T18:13:54.941Z,4.60
2018-08-20T18:16:26.351Z,1.70
2018-08-20T18:18:57.763Z,2.08
2018-08-20T18:21:32.142Z,1.60
2018-08-20T18:24:05.112Z,2.65
2018-08-20T18:26:46.234Z,2.47
2018-08-20T18:29:18.405Z,3.45
2018-08-20T18:32:01.355Z,2.67
2018-08-20T18:34:32.040Z,2.85
2018-08-20T18:37:07.390Z,4.05
2018-08-20T18:39:40.545Z,2.30
2018-08-20T18:42:17.768Z,2.22
2018-08-20T18:44:52.955Z,4.75
2018-08-20T18:47:25.951Z,4.50
2018-08-20T18:50:00.466Z,7.68
2018-08-20T18:52:35.976Z,4.37
2018-08-20T18:55:08.884Z,3.80
2018-08-20T18:57:41.852Z,3.97
2018-08-20T19:00:18.393Z,3.83
2018-08-20T19:02:55.423Z,5.10
2018-08-20T19:05:28.353Z,4.20
2018-08-20T19:07:59.809Z,4.35
2018-08-20T19:10:34.952Z,4.60
2018-08-20T19:13:07.868Z,12.05
2018-08-20T19:15:50.684Z,5.95
2018-08-20T19:18:40.707Z,8.48
2018-08-20T19:21:25.114Z,5.57
2018-08-20T19:23:58.944Z,6.43
2018-08-20T19:26:33.336Z,9.00
2018-08-20T19:29:32.739Z,5.22
2018-08-20T19:32:07.098Z,5.55
2018-08-20T19:34:37.335Z,5.60
2018-08-20T19:37:10.076Z,5.97
2018-08-20T19:39:43.146Z,6.45
2018-08-20T19:42:37.358Z,6.80
2018-08-20T19:45:13.472Z,9.65
2018-08-20T19:47:45.527Z,5.37
2018-08-20T19:50:20.079Z,7.68
2018-08-20T19:52:54.474Z,5.25
2018-08-20T19:55:26.548Z,6.57
2018-08-20T19:57:58.078Z,5.95
2018-08-20T20:00:32.345Z,4.95
2018-08-20T20:03:05.770Z,4.72
2018-08-20T20:05:37.545Z,6.10
2018-08-20T20:08:09.189Z,12.25
2018-08-20T20:10:44.878Z,5.72
2018-08-20T20:13:17.738Z,6.90
2018-08-20T20:15:55.054Z,7.57
2018-08-20T20:18:28.096Z,9.13
2018-08-20T20:20:59.651Z,7.43
2018-08-20T20:23:34.127Z,7.30
2018-08-20T20:26:07.108Z,8.88
2018-08-20T20:28:41.542Z,8.23
2018-08-20T20:31:16.026Z,8.80
2018-08-20T20:33:46.724Z,6.43
2018-08-20T20:36:25.803Z,9.43
2018-08-20T20:38:57.686Z,7.25
2018-08-20T20:41:29.076Z,7.45
2018-08-20T20:44:00.641Z,6.57
2018-08-20T20:46:35.070Z,5.50
2018-08-20T20:49:08.209Z,6.53
2018-08-20T20:51:41.276Z,7.78
2018-08-20T20:54:12.866Z,8.35
2018-08-20T20:56:45.798Z,6.95
2018-08-20T20:59:18.946Z,8.13
2018-08-20T21:01:51.996Z,6.28
2018-08-20T21:04:24.858Z,8.43
2018-08-20T21:06:57.847Z,9.70
2018-08-20T21:09:33.588Z,7.25
2018-08-20T21:12:05.068Z,6.62
2018-08-20T21:14:39.680Z,6.43
2018-08-20T21:17:12.912Z,10.63
2018-08-20T21:19:45.854Z,9.55
2018-08-20T21:22:18.935Z,6.00
2018-08-20T21:24:51.923Z,6.07
2018-08-20T21:27:28.501Z,5.03
2018-08-20T21:30:03.832Z,5.32
2018-08-20T21:32:36.874Z,6.10
2018-08-20T21:35:09.876Z,6.95
2018-08-20T21:37:42.798Z,6.03
2018-08-20T21:40:26.964Z,5.32
2018-08-20T21:43:00.175Z,6.25
2018-08-20T21:45:33.257Z,6.12
2018-08-20T21:48:07.763Z,4.80
2018-08-20T21:50:37.815Z,7.45
2018-08-20T21:53:08.167Z,5.57
2018-08-20T21:55:41.026Z,5.78
2018-08-20T21:58:13.985Z,5.25
2018-08-20T22:00:46.862Z,6.60
2018-08-20T22:03:18.666Z,8.20
2018-08-20T22:05:51.532Z,6.22
2018-08-20T22:08:25.868Z,6.10
2018-08-20T22:11:00.595Z,7.75
2018-08-20T22:13:34.452Z,6.03
2018-08-20T22:16:27.382Z,9.77
2018-08-20T22:19:01.485Z,9.45
2018-08-20T22:21:35.780Z,6.65
2018-08-20T22:24:08.802Z,6.95
2018-08-20T22:26:50.682Z,7.97
2018-08-20T22:29:24.122Z,6.12
2018-08-20T22:31:59.916Z,6.53
2018-08-20T22:34:32.837Z,6.32
2018-08-20T22:37:11.663Z,6.37
2018-08-20T22:39:46.146Z,8.13
2018-08-20T22:42:17.546Z,7.35
2018-08-20T22:44:49.201Z,5.70
2018-08-20T22:47:22.183Z,8.98
2018-08-20T22:49:55.195Z,6.32
2018-08-20T22:52:27.418Z,6.30
2018-08-20T22:55:01.909Z,6.30
2018-08-20T22:57:34.846Z,6.72
2018-08-20T23:00:21.092Z,6.70
2018-08-20T23:02:56.866Z,8.75
2018-08-20T23:05:34.477Z,8.65
2018-08-20T23:08:18.861Z,6.25
2018-08-20T23:10:51.827Z,6.87
2018-08-20T23:13:25.852Z,7.05
2018-08-20T23:15:59.014Z,6.28
2018-08-20T23:18:30.239Z,7.30
2018-08-20T23:21:03.230Z,6.47
2018-08-20T23:23:38.597Z,6.80
2018-08-20T23:26:12.576Z,5.65
2018-08-20T23:28:44.221Z,6.87
2018-08-20T23:31:16.549Z,5.53
2018-08-20T23:33:51.028Z,5.97
2018-08-20T23:36:24.139Z,6.00
2018-08-20T23:38:57.152Z,6.57
2018-08-20T23:41:28.848Z,8.27
2018-08-20T23:44:01.141Z,6.68
2018-08-20T23:46:44.274Z,7.80
2018-08-20T23:49:15.904Z,4.90
2018-08-20T23:51:49.033Z,5.05
2018-08-20T23:54:22.062Z,5.12
2018-08-20T23:56:55.014Z,4.50
2018-08-20T23:59:28.072Z,4.30
